createdAt,value
2019-01-09T00:00:02.584Z,1.9
2019-01-09T00:15:04.386Z,2.1
2019-01-09T00:30:02.777Z,1.9
2019-01-09T00:45:02.961Z,1.8
2019-01-09T01:00:03.259Z,1.6
2019-01-09T01:15:02.498Z,1.5
2019-01-09T01:30:02.862Z,1.6
2019-01-09T01:45:03.204Z,1.6
2019-01-09T02:00:02.456Z,1.5
2019-01-09T02:15:02.805Z,1.5
2019-01-09T02:30:03.211Z,1.6
2019-01-09T02:45:02.433Z,1.4
2019-01-09T03:00:03.136Z,1.4
2019-01-09T03:15:03.380Z,1.4
2019-01-09T03:30:02.719Z,1.2
2019-01-09T03:45:02.987Z,1.4
2019-01-09T04:00:03.230Z,1.5
2019-01-09T04:15:02.503Z,1.4
2019-01-09T04:30:02.897Z,1.4
2019-01-09T04:45:03.213Z,1.4
2019-01-09T05:00:02.483Z,1.4
2019-01-09T05:15:02.770Z,1.3
2019-01-09T05:30:03.056Z,1.3
2019-01-09T05:45:03.444Z,1.3
2019-01-09T06:00:02.815Z,1.2
2019-01-09T06:15:03.311Z,1.2
2019-01-09T06:30:02.693Z,1.2
2019-01-09T06:45:03.120Z,1.2
2019-01-09T07:00:03.405Z,1.2
2019-01-09T07:15:11.035Z,1.2
2019-01-09T07:30:03.070Z,1.2
2019-01-09T07:45:03.288Z,1.2
2019-01-09T08:00:02.579Z,0.6
2019-01-09T08:15:03.124Z,0.8
2019-01-09T08:30:02.496Z,0.8
2019-01-09T08:45:03.082Z,0.9
2019-01-09T09:00:03.699Z,1
2019-01-09T09:15:02.658Z,1.1
2019-01-09T09:30:03.124Z,1.2
2019-01-09T09:45:02.724Z,1.3
2019-01-09T10:00:04.191Z,1.4
2019-01-09T10:15:03.292Z,1.4
2019-01-09T10:30:03.394Z,1.2
2019-01-09T10:45:03.744Z,0.9
2019-01-09T11:00:03.521Z,0.8
2019-01-09T11:15:02.478Z,0.8
2019-01-09T11:30:02.905Z,0.8
2019-01-09T11:45:03.222Z,0.8
2019-01-09T12:00:02.469Z,0.8
2019-01-09T12:15:02.823Z,0.8
2019-01-09T12:30:03.692Z,0.6
2019-01-09T12:45:03.361Z,0.6
2019-01-09T13:00:03.067Z,0.4
2019-01-09T13:15:03.327Z,0.4
2019-01-09T13:30:02.673Z,0.3
2019-01-09T13:45:02.979Z,0.3
2019-01-09T14:00:03.304Z,0.2
2019-01-09T14:15:02.780Z,0.1
2019-01-09T14:30:03.114Z,0.1
2019-01-09T14:45:02.514Z,0.1
2019-01-09T15:00:02.837Z,0
2019-01-09T15:15:03.112Z,0
2019-01-09T15:30:02.472Z,-0.1
2019-01-09T15:45:02.914Z,-0.1
2019-01-09T16:00:03.236Z,-0.1
2019-01-09T16:15:02.605Z,-0.1
2019-01-09T16:30:03.197Z,-0.1
2019-01-09T16:45:03.234Z,-0.1
2019-01-09T17:00:02.670Z,-0.2
2019-01-09T17:15:03.009Z,-0.3
2019-01-09T17:30:02.620Z,-0.3
2019-01-09T17:45:02.845Z,-0.4
2019-01-09T18:00:03.353Z,-0.4
2019-01-09T18:15:02.639Z,-0.3
2019-01-09T18:30:03.406Z,-0.4
2019-01-09T18:45:04.554Z,-0.4
2019-01-09T19:00:03.150Z,-0.4
2019-01-09T19:15:02.594Z,-0.4
2019-01-09T19:30:03.224Z,-0.5
2019-01-09T19:45:02.477Z,-0.4
2019-01-09T20:00:02.837Z,-0.5
2019-01-09T20:15:03.351Z,-0.5
2019-01-09T20:30:02.621Z,-0.6
2019-01-09T20:45:02.926Z,-0.6
2019-01-09T21:00:02.510Z,-0.6
2019-01-09T21:15:02.953Z,-0.6
2019-01-09T21:30:03.397Z,-0.6
2019-01-09T21:45:02.663Z,-0.6
2019-01-09T22:00:02.957Z,-0.6
2019-01-09T22:15:02.576Z,-0.6
2019-01-09T22:30:02.938Z,-0.6
2019-01-09T22:45:03.243Z,-0.7
2019-01-09T23:00:02.775Z,-0.7
2019-01-09T23:15:02.867Z,-0.8
2019-01-09T23:30:03.297Z,-0.7
2019-01-09T23:45:02.585Z,-0.7
